createdAt,value
2023-04-17T00:01:28.505Z,19.48
2023-04-17T00:03:57.883Z,18.05
2023-04-17T00:06:27.200Z,17.83
2023-04-17T00:08:54.844Z,19.38
2023-04-17T00:11:21.783Z,17.85
2023-04-17T00:16:14.680Z,17.67
2023-04-17T00:21:08.040Z,16.73
2023-04-17T00:23:34.505Z,17.88
2023-04-17T00:26:01.553Z,17.58
2023-04-17T00:28:27.972Z,19.80
2023-04-17T00:30:54.524Z,18.13
2023-04-17T00:33:21.307Z,19.42
2023-04-17T00:35:48.268Z,17.85
2023-04-17T00:38:14.760Z,17.63
2023-04-17T00:40:42.088Z,17.95
2023-04-17T00:43:08.830Z,18.95
2023-04-17T00:45:35.736Z,20.00
2023-04-17T00:48:05.041Z,19.33
2023-04-17T00:50:31.802Z,19.15
2023-04-17T00:52:58.525Z,18.35
2023-04-17T00:55:26.468Z,19.92
2023-04-17T00:57:53.616Z,21.85
2023-04-17T01:00:20.126Z,21.10
2023-04-17T01:02:47.164Z,19.38
2023-04-17T01:05:14.842Z,21.20
2023-04-17T01:07:41.926Z,19.80
2023-04-17T01:10:09.948Z,20.67
2023-04-17T01:12:36.843Z,21.98
2023-04-17T01:15:04.574Z,20.58
2023-04-17T01:17:31.288Z,20.17
2023-04-17T01:19:58.549Z,21.30
2023-04-17T01:22:25.092Z,21.50
2023-04-17T01:24:52.972Z,21.48
2023-04-17T01:27:22.330Z,21.38
2023-04-17T01:29:49.460Z,22.52
2023-04-17T01:32:17.271Z,23.17
2023-04-17T01:34:44.399Z,25.33
2023-04-17T01:37:10.922Z,24.90
2023-04-17T01:39:37.576Z,23.98
2023-04-17T01:42:04.292Z,24.33
2023-04-17T01:46:57.238Z,25.50
2023-04-17T01:49:23.892Z,22.42
2023-04-17T01:51:50.690Z,23.13
2023-04-17T01:54:17.194Z,23.50
2023-04-17T01:56:43.685Z,22.77
2023-04-17T01:59:10.942Z,23.65
2023-04-17T02:01:38.152Z,24.48
2023-04-17T02:04:05.015Z,24.60
2023-04-17T02:06:32.538Z,24.65
2023-04-17T02:08:59.888Z,22.98
2023-04-17T02:11:26.535Z,24.88
2023-04-17T02:13:53.449Z,24.02
2023-04-17T02:16:24.113Z,22.75
2023-04-17T02:18:51.628Z,23.60
2023-04-17T02:21:18.653Z,24.52
2023-04-17T02:23:45.838Z,23.73
2023-04-17T02:26:12.602Z,23.30
2023-04-17T02:28:39.519Z,22.67
2023-04-17T02:31:08.743Z,22.83
2023-04-17T02:33:36.704Z,23.30
2023-04-17T02:36:06.287Z,22.73
2023-04-17T02:38:33.291Z,23.10
2023-04-17T02:41:00.123Z,24.48
2023-04-17T02:43:26.682Z,24.10
2023-04-17T02:45:53.477Z,24.83
2023-04-17T02:48:20.257Z,24.60
2023-04-17T02:50:47.036Z,25.27
2023-04-17T02:55:40.535Z,22.50
2023-04-17T02:58:07.044Z,25.60
2023-04-17T03:00:33.578Z,25.67
2023-04-17T03:03:00.943Z,25.65
2023-04-17T03:05:30.377Z,24.77
2023-04-17T03:08:00.232Z,24.55
2023-04-17T03:10:26.785Z,24.27
2023-04-17T03:12:53.484Z,25.33
2023-04-17T03:15:20.008Z,25.92
2023-04-17T03:17:46.845Z,26.02
2023-04-17T03:20:15.761Z,25.00
2023-04-17T03:22:42.609Z,26.30
2023-04-17T03:25:09.869Z,25.15
2023-04-17T03:27:36.468Z,25.38
2023-04-17T03:30:05.941Z,27.45
2023-04-17T03:32:32.873Z,25.23
2023-04-17T03:34:59.506Z,25.80
2023-04-17T03:39:52.654Z,23.92
2023-04-17T03:42:21.316Z,25.55
2023-04-17T03:44:47.893Z,24.05
2023-04-17T03:47:14.324Z,25.38
2023-04-17T03:49:41.502Z,24.85
2023-04-17T03:52:08.105Z,26.85
2023-04-17T03:54:35.752Z,25.73
2023-04-17T03:57:03.819Z,26.23
2023-04-17T03:59:31.445Z,24.58
2023-04-17T04:01:58.160Z,24.92
2023-04-17T04:04:25.575Z,25.77
2023-04-17T04:06:54.356Z,26.17
2023-04-17T04:09:21.453Z,24.77
2023-04-17T04:14:14.913Z,23.63
2023-04-17T04:16:42.140Z,27.30
2023-04-17T04:21:35.383Z,24.10
2023-04-17T04:24:02.931Z,25.13
2023-04-17T04:26:29.517Z,27.50
2023-04-17T04:28:56.586Z,23.75
2023-04-17T04:31:25.454Z,25.90
2023-04-17T04:33:55.110Z,23.77
2023-04-17T04:36:22.861Z,25.75
2023-04-17T04:38:50.321Z,26.40
2023-04-17T04:41:17.669Z,26.70
2023-04-17T04:43:44.466Z,24.42
2023-04-17T04:46:12.276Z,24.30
2023-04-17T04:48:40.636Z,25.10
2023-04-17T04:51:08.955Z,24.23
2023-04-17T04:53:35.873Z,23.08
2023-04-17T04:56:02.477Z,24.88
2023-04-17T04:58:31.994Z,23.80
2023-04-17T05:00:58.653Z,22.85
2023-04-17T05:03:26.322Z,22.67
2023-04-17T05:05:52.888Z,24.63
2023-04-17T05:08:20.240Z,23.80
2023-04-17T05:10:46.768Z,25.27
2023-04-17T05:15:41.375Z,22.73
2023-04-17T05:18:08.064Z,23.20
2023-04-17T05:20:34.577Z,23.00
2023-04-17T05:25:28.000Z,21.58
2023-04-17T05:27:54.649Z,22.80
2023-04-17T05:30:21.128Z,23.15
2023-04-17T05:32:48.503Z,22.45
2023-04-17T05:35:14.959Z,23.50
2023-04-17T05:37:42.132Z,22.83
2023-04-17T05:40:09.670Z,24.35
2023-04-17T05:42:37.677Z,21.73
2023-04-17T05:47:31.345Z,20.17
2023-04-17T05:49:58.787Z,22.00
2023-04-17T05:52:25.620Z,22.02
2023-04-17T05:54:52.127Z,23.83
2023-04-17T05:57:18.863Z,22.58
2023-04-17T05:59:46.886Z,21.75
2023-04-17T06:02:13.393Z,22.02
2023-04-17T06:04:41.399Z,22.83
2023-04-17T06:07:08.875Z,20.83
2023-04-17T06:09:36.712Z,20.77
2023-04-17T06:12:06.751Z,21.40
2023-04-17T06:14:33.220Z,21.50
2023-04-17T06:17:00.133Z,20.73
2023-04-17T06:19:27.065Z,20.27
2023-04-17T06:21:53.581Z,22.85
2023-04-17T06:24:20.311Z,20.33
2023-04-17T06:29:15.416Z,21.40
2023-04-17T06:31:41.970Z,19.83
2023-04-17T06:34:08.747Z,21.45
2023-04-17T06:36:35.803Z,19.52
2023-04-17T06:39:03.139Z,20.73
2023-04-17T06:41:29.555Z,18.83
2023-04-17T06:43:56.233Z,19.13
2023-04-17T06:46:23.117Z,19.10
2023-04-17T06:48:52.165Z,19.55
2023-04-17T06:51:20.913Z,17.85
2023-04-17T06:53:50.002Z,19.20
2023-04-17T06:56:17.130Z,19.80
2023-04-17T06:58:46.669Z,17.67
2023-04-17T07:01:14.586Z,18.55
2023-04-17T07:03:43.021Z,17.58
2023-04-17T07:06:10.209Z,17.90
2023-04-17T07:08:37.257Z,17.35
2023-04-17T07:11:03.785Z,16.23
2023-04-17T07:13:32.878Z,17.58
2023-04-17T07:16:01.211Z,16.45
2023-04-17T07:18:29.712Z,16.55
2023-04-17T07:20:56.703Z,16.45
2023-04-17T07:23:23.623Z,16.63
2023-04-17T07:25:50.488Z,17.13
2023-04-17T07:30:44.131Z,16.50
2023-04-17T07:33:10.613Z,16.10
2023-04-17T07:35:37.902Z,16.13
2023-04-17T07:40:31.961Z,14.80
2023-04-17T07:42:58.645Z,15.60
2023-04-17T07:45:29.370Z,15.95
2023-04-17T07:47:56.434Z,13.88
2023-04-17T07:50:23.559Z,15.05
2023-04-17T07:52:50.473Z,14.80
2023-04-17T07:55:17.050Z,15.15
2023-04-17T07:57:46.461Z,14.80
2023-04-17T08:00:14.495Z,15.07
2023-04-17T08:02:42.581Z,14.55
2023-04-17T08:05:09.961Z,16.05
2023-04-17T08:07:36.914Z,14.30
2023-04-17T08:10:04.762Z,14.75
2023-04-17T08:12:31.789Z,14.18
2023-04-17T08:14:58.299Z,13.02
2023-04-17T08:17:26.012Z,12.35
2023-04-17T08:19:57.490Z,12.43
2023-04-17T08:22:25.972Z,13.75
2023-04-17T08:24:57.726Z,11.77
2023-04-17T08:27:25.509Z,12.45
2023-04-17T08:29:55.676Z,11.90
2023-04-17T08:32:22.726Z,12.25
2023-04-17T08:37:16.057Z,11.60
2023-04-17T08:39:42.636Z,11.05
2023-04-17T08:42:18.415Z,11.40
2023-04-17T08:44:45.580Z,12.55
2023-04-17T08:47:13.554Z,12.30
2023-04-17T08:49:43.391Z,11.15
2023-04-17T08:52:10.800Z,11.95
2023-04-17T08:57:05.565Z,10.27
2023-04-17T08:59:32.434Z,12.30
2023-04-17T09:02:07.161Z,10.98
2023-04-17T09:04:38.732Z,10.82
2023-04-17T09:07:06.540Z,10.98
2023-04-17T09:09:53.381Z,11.55
2023-04-17T09:12:24.630Z,11.13
2023-04-17T09:14:51.931Z,11.68
2023-04-17T09:17:19.859Z,11.05
2023-04-17T09:20:08.858Z,10.70
2023-04-17T09:22:37.891Z,10.43
2023-04-17T09:25:05.141Z,10.38
2023-04-17T09:27:32.297Z,9.63
2023-04-17T09:30:03.289Z,9.77
2023-04-17T09:32:32.017Z,11.02
2023-04-17T09:35:01.979Z,9.13
2023-04-17T09:37:51.108Z,8.95
2023-04-17T09:40:19.144Z,9.73
2023-04-17T09:43:00.921Z,9.02
2023-04-17T09:45:35.201Z,9.40
2023-04-17T09:48:08.148Z,9.55
2023-04-17T09:50:36.633Z,9.25
2023-04-17T09:53:07.075Z,9.05
2023-04-17T09:55:36.406Z,9.48
2023-04-17T09:58:05.232Z,8.45
2023-04-17T10:00:32.220Z,8.98
2023-04-17T10:02:59.506Z,8.40
2023-04-17T10:05:28.917Z,8.18
2023-04-17T10:07:56.735Z,6.75
2023-04-17T10:10:25.652Z,6.88
2023-04-17T10:12:56.501Z,6.60
2023-04-17T10:15:24.795Z,7.05
2023-04-17T10:17:52.704Z,7.05
2023-04-17T10:20:20.008Z,7.30
2023-04-17T10:22:54.620Z,7.53
2023-04-17T10:25:28.920Z,6.97
2023-04-17T10:27:58.388Z,6.93
2023-04-17T10:30:53.955Z,8.65
2023-04-17T10:33:23.036Z,7.03
2023-04-17T10:35:50.711Z,6.88
2023-04-17T10:38:31.506Z,6.72
2023-04-17T10:41:02.487Z,6.85
2023-04-17T10:43:29.518Z,7.78
2023-04-17T10:48:52.430Z,5.97
2023-04-17T10:51:26.988Z,5.40
2023-04-17T10:53:59.244Z,5.45
2023-04-17T10:56:38.967Z,5.22
2023-04-17T10:59:11.571Z,4.82
2023-04-17T11:01:58.077Z,4.55
2023-04-17T11:04:28.428Z,4.70
2023-04-17T11:06:55.682Z,6.43
2023-04-17T11:09:24.749Z,5.55
2023-04-17T11:11:51.472Z,6.25
2023-04-17T11:14:20.791Z,6.15
2023-04-17T11:16:49.093Z,4.88
2023-04-17T11:19:23.562Z,6.13
2023-04-17T11:21:52.287Z,5.93
2023-04-17T11:24:31.873Z,4.50
2023-04-17T11:27:00.612Z,3.50
2023-04-17T11:29:27.798Z,3.53
2023-04-17T11:31:56.286Z,3.78
2023-04-17T11:34:24.857Z,3.38
2023-04-17T11:36:52.996Z,3.47
2023-04-17T11:39:21.311Z,3.63
2023-04-17T11:41:47.982Z,3.72
2023-04-17T11:44:16.798Z,3.53
2023-04-17T11:46:49.710Z,3.50
2023-04-17T11:49:17.095Z,3.10
2023-04-17T11:51:47.397Z,3.47
2023-04-17T11:54:35.853Z,3.55
2023-04-17T11:57:13.450Z,3.60
2023-04-17T11:59:45.991Z,3.42
2023-04-17T12:02:13.163Z,3.25
2023-04-17T12:04:40.422Z,3.20
2023-04-17T12:07:08.324Z,3.20
2023-04-17T12:09:36.355Z,3.20
2023-04-17T12:12:07.554Z,3.60
2023-04-17T12:14:34.637Z,3.40
2023-04-17T12:19:29.365Z,3.65
2023-04-17T12:21:57.278Z,3.65
2023-04-17T12:24:24.683Z,3.55
2023-04-17T12:26:52.595Z,3.10
2023-04-17T12:29:29.054Z,3.65
2023-04-17T12:31:59.579Z,3.30
2023-04-17T12:34:27.789Z,3.50
2023-04-17T12:36:54.608Z,3.50
2023-04-17T12:39:21.200Z,3.70
2023-04-17T12:41:47.952Z,3.97
2023-04-17T12:44:14.746Z,3.10
2023-04-17T12:46:41.622Z,3.70
2023-04-17T12:49:08.701Z,3.75
2023-04-17T12:51:37.771Z,3.65
2023-04-17T12:54:04.762Z,3.28
2023-04-17T12:56:31.494Z,3.85
2023-04-17T12:58:59.387Z,3.30
2023-04-17T13:01:28.226Z,3.92
2023-04-17T13:03:55.392Z,3.60
2023-04-17T13:06:21.988Z,3.70
2023-04-17T13:08:48.526Z,3.70
2023-04-17T13:11:15.137Z,3.50
2023-04-17T13:13:41.679Z,3.88
2023-04-17T13:16:09.734Z,3.60
2023-04-17T13:18:36.313Z,3.30
2023-04-17T13:21:03.307Z,3.30
2023-04-17T13:23:30.442Z,3.47
2023-04-17T13:28:23.585Z,3.15
2023-04-17T13:30:50.370Z,3.38
2023-04-17T13:35:43.558Z,3.70
2023-04-17T13:38:10.203Z,3.28
2023-04-17T13:43:06.556Z,3.03
2023-04-17T13:45:33.065Z,3.03
2023-04-17T13:48:00.167Z,3.00
2023-04-17T13:50:27.065Z,2.90
2023-04-17T13:52:53.692Z,2.72
2023-04-17T13:57:46.663Z,2.67
2023-04-17T14:00:13.875Z,2.60
2023-04-17T14:02:40.678Z,2.88
2023-04-17T14:05:07.605Z,3.70
2023-04-17T14:07:34.183Z,2.13
2023-04-17T14:10:00.676Z,2.45
2023-04-17T14:12:27.083Z,2.42
2023-04-17T14:14:53.587Z,2.20
2023-04-17T14:17:20.549Z,2.47
2023-04-17T14:19:47.237Z,2.20
2023-04-17T14:22:14.137Z,2.28
2023-04-17T14:27:07.158Z,1.90
2023-04-17T14:29:33.727Z,2.20
2023-04-17T14:32:00.245Z,1.80
2023-04-17T14:34:26.932Z,2.35
2023-04-17T14:41:47.178Z,2.30
2023-04-17T14:44:13.901Z,2.50
2023-04-17T14:46:40.570Z,2.30
2023-04-17T14:51:34.269Z,2.38
2023-04-17T14:54:00.983Z,2.38
2023-04-17T14:56:27.487Z,2.60
2023-04-17T14:58:53.940Z,2.58
2023-04-17T15:01:20.568Z,2.60
2023-04-17T15:03:48.616Z,2.60
2023-04-17T15:06:16.391Z,3.08
2023-04-17T15:08:43.376Z,2.72
2023-04-17T15:11:10.338Z,2.75
2023-04-17T15:13:39.363Z,2.60
2023-04-17T15:16:06.446Z,2.45
2023-04-17T15:18:35.953Z,2.78
2023-04-17T15:21:02.675Z,3.05
2023-04-17T15:23:29.823Z,2.60
2023-04-17T15:25:57.738Z,2.75
2023-04-17T15:28:25.256Z,3.10
2023-04-17T15:30:51.881Z,3.20
2023-04-17T15:35:44.989Z,2.58
2023-04-17T15:38:11.922Z,2.63
2023-04-17T15:40:38.470Z,3.17
2023-04-17T15:43:05.121Z,3.65
2023-04-17T15:45:32.003Z,4.13
2023-04-17T15:47:58.532Z,3.67
2023-04-17T15:50:25.107Z,3.67
2023-04-17T15:52:51.878Z,3.53
2023-04-17T15:55:18.625Z,3.50
2023-04-17T15:57:46.050Z,3.45
2023-04-17T16:02:39.689Z,3.00
2023-04-17T16:07:32.818Z,3.03
2023-04-17T16:09:59.833Z,2.95
2023-04-17T16:12:28.253Z,3.40
2023-04-17T16:14:54.744Z,3.45
2023-04-17T16:17:21.340Z,3.35
2023-04-17T16:19:50.378Z,3.33
2023-04-17T16:22:18.253Z,3.70
2023-04-17T16:24:44.848Z,3.83
2023-04-17T16:29:37.923Z,3.65
2023-04-17T16:32:04.447Z,3.30
2023-04-17T16:34:31.026Z,4.13
2023-04-17T16:36:57.393Z,3.63
2023-04-17T16:39:24.017Z,3.53
2023-04-17T16:41:52.128Z,3.40
2023-04-17T16:44:18.684Z,3.65
2023-04-17T16:47:05.508Z,3.92
2023-04-17T16:49:32.142Z,3.60
2023-04-17T16:51:59.181Z,4.13
2023-04-17T16:54:26.077Z,3.67
2023-04-17T16:56:52.794Z,3.92
2023-04-17T16:59:19.343Z,3.53
2023-04-17T17:01:47.136Z,3.92
2023-04-17T17:04:13.709Z,3.90
2023-04-17T17:06:40.321Z,4.40
2023-04-17T17:09:07.253Z,4.00
2023-04-17T17:11:33.868Z,3.88
2023-04-17T17:14:00.882Z,4.03
2023-04-17T17:16:27.702Z,4.05
2023-04-17T17:18:54.494Z,3.67
2023-04-17T17:23:49.064Z,3.78
2023-04-17T17:26:16.974Z,4.30
2023-04-17T17:28:44.177Z,4.00
2023-04-17T17:31:10.874Z,3.58
2023-04-17T17:33:37.839Z,3.65
2023-04-17T17:36:04.614Z,4.78
2023-04-17T17:38:32.598Z,3.60
2023-04-17T17:40:59.616Z,3.28
2023-04-17T17:45:55.714Z,3.40
2023-04-17T17:50:53.557Z,3.03
2023-04-17T17:53:21.480Z,3.63
2023-04-17T17:55:56.018Z,4.10
2023-04-17T17:58:23.113Z,3.28
2023-04-17T18:00:50.417Z,3.50
2023-04-17T18:03:17.963Z,3.65
2023-04-17T18:05:46.250Z,3.60
2023-04-17T18:08:13.661Z,2.80
2023-04-17T18:10:40.137Z,3.28
2023-04-17T18:13:06.751Z,3.22
2023-04-17T18:18:00.360Z,2.75
2023-04-17T18:20:27.124Z,3.00
2023-04-17T18:22:54.112Z,3.15
2023-04-17T18:25:20.727Z,3.13
2023-04-17T18:30:14.385Z,2.80
2023-04-17T18:32:41.506Z,3.40
2023-04-17T18:35:08.662Z,2.97
2023-04-17T18:37:35.447Z,3.13
2023-04-17T18:40:01.961Z,3.00
2023-04-17T18:42:28.497Z,3.40
2023-04-17T18:44:55.858Z,3.28
2023-04-17T18:47:22.423Z,3.05
2023-04-17T18:49:52.095Z,3.20
2023-04-17T18:52:19.008Z,3.17
2023-04-17T18:57:11.972Z,3.33
2023-04-17T18:59:38.551Z,3.30
2023-04-17T19:02:06.180Z,3.33
2023-04-17T19:04:32.830Z,3.20
2023-04-17T19:06:59.497Z,3.33
2023-04-17T19:09:26.939Z,3.28
2023-04-17T19:11:54.696Z,3.30
2023-04-17T19:14:21.264Z,3.80
2023-04-17T19:16:54.534Z,2.90
2023-04-17T19:19:21.845Z,2.83
2023-04-17T19:21:49.531Z,3.25
2023-04-17T19:24:16.341Z,3.05
2023-04-17T19:26:43.113Z,3.03
2023-04-17T19:29:09.537Z,3.50
2023-04-17T19:31:37.358Z,3.25
2023-04-17T19:34:06.733Z,3.08
2023-04-17T19:36:33.652Z,3.38
2023-04-17T19:39:01.443Z,3.85
2023-04-17T19:41:28.446Z,3.35
2023-04-17T19:43:56.302Z,3.33
2023-04-17T19:46:24.436Z,3.25
2023-04-17T19:48:53.652Z,3.42
2023-04-17T19:51:24.456Z,3.50
2023-04-17T19:54:11.972Z,3.67
2023-04-17T19:56:39.384Z,3.72
2023-04-17T19:59:06.347Z,3.88
2023-04-17T20:01:36.820Z,3.53
2023-04-17T20:04:04.794Z,3.55
2023-04-17T20:06:33.572Z,3.58
2023-04-17T20:09:19.996Z,3.40
2023-04-17T20:11:47.359Z,3.63
2023-04-17T20:14:19.478Z,3.90
2023-04-17T20:16:49.831Z,3.72
2023-04-17T20:19:17.628Z,3.78
2023-04-17T20:21:44.213Z,3.80
2023-04-17T20:26:39.425Z,3.80
2023-04-17T20:29:06.201Z,3.70
2023-04-17T20:31:36.150Z,3.63
2023-04-17T20:34:03.513Z,3.80
2023-04-17T20:36:31.202Z,3.80
2023-04-17T20:41:23.957Z,4.15
2023-04-17T20:44:00.003Z,3.60
2023-04-17T20:46:28.209Z,3.60
2023-04-17T20:48:55.380Z,3.83
2023-04-17T20:51:25.013Z,3.95
2023-04-17T20:53:52.732Z,4.05
2023-04-17T20:56:21.207Z,4.03
2023-04-17T20:58:47.942Z,3.70
2023-04-17T21:01:15.540Z,3.92
2023-04-17T21:03:42.970Z,3.90
2023-04-17T21:06:09.655Z,3.60
2023-04-17T21:08:36.094Z,4.50
2023-04-17T21:11:02.584Z,4.35
2023-04-17T21:13:30.586Z,4.60
2023-04-17T21:15:57.139Z,5.32
2023-04-17T21:18:24.239Z,4.25
2023-04-17T21:20:50.918Z,3.72
2023-04-17T21:23:17.554Z,4.20
2023-04-17T21:25:43.972Z,3.75
2023-04-17T21:28:11.829Z,3.80
2023-04-17T21:30:38.283Z,3.55
2023-04-17T21:33:04.926Z,4.20
2023-04-17T21:35:31.410Z,4.05
2023-04-17T21:37:58.241Z,3.90
2023-04-17T21:40:26.037Z,3.35
2023-04-17T21:42:53.025Z,3.90
2023-04-17T21:45:20.080Z,4.20
2023-04-17T21:50:13.083Z,3.88
2023-04-17T21:52:39.691Z,3.78
2023-04-17T21:55:07.670Z,4.07
2023-04-17T21:57:35.194Z,3.47
2023-04-17T22:00:03.522Z,3.75
2023-04-17T22:02:30.719Z,3.75
2023-04-17T22:04:57.856Z,3.60
2023-04-17T22:07:24.515Z,3.95
2023-04-17T22:09:51.671Z,3.88
2023-04-17T22:12:20.413Z,3.95
2023-04-17T22:14:48.016Z,3.80
2023-04-17T22:17:15.523Z,3.55
2023-04-17T22:19:42.897Z,4.05
2023-04-17T22:22:09.305Z,3.50
2023-04-17T22:24:36.450Z,4.15
2023-04-17T22:27:03.149Z,3.97
2023-04-17T22:29:29.814Z,4.30
2023-04-17T22:31:56.135Z,4.32
2023-04-17T22:34:22.615Z,4.15
2023-04-17T22:36:49.106Z,3.72
2023-04-17T22:39:16.783Z,4.70
2023-04-17T22:41:43.186Z,4.32
2023-04-17T22:44:09.684Z,4.20
2023-04-17T22:46:36.646Z,4.28
2023-04-17T22:51:32.718Z,4.47
2023-04-17T22:54:01.588Z,4.57
2023-04-17T22:56:32.259Z,4.38
2023-04-17T22:58:58.826Z,4.47
2023-04-17T23:01:25.693Z,4.28
2023-04-17T23:03:52.988Z,4.30
2023-04-17T23:06:23.324Z,3.90
2023-04-17T23:08:50.270Z,4.25
2023-04-17T23:13:43.956Z,4.35
2023-04-17T23:18:38.005Z,4.25
2023-04-17T23:21:04.887Z,4.65
2023-04-17T23:25:58.225Z,4.60
2023-04-17T23:28:30.318Z,4.93
2023-04-17T23:30:57.871Z,4.70
2023-04-17T23:33:26.663Z,4.72
2023-04-17T23:35:53.411Z,5.05
2023-04-17T23:38:20.190Z,4.90
2023-04-17T23:40:47.336Z,4.57
2023-04-17T23:43:13.932Z,4.60
2023-04-17T23:45:40.457Z,4.68
2023-04-17T23:48:07.167Z,4.68
2023-04-17T23:50:33.927Z,4.47
2023-04-17T23:53:00.925Z,5.07
2023-04-17T23:55:29.737Z,4.72
2023-04-17T23:57:57.136Z,5.22
